Time;durP1;ratioP1;P1;durP2;ratioP2;P2;SDS_P1;SDS_P2;PMS_P1;PMS_P2;Temp;Humidity;BMP_temperature;BMP_pressure;BME280_temperature;BME280_humidity;BME280_pressure;Samples;Min_cycle;Max_cycle;Signal;HPM_P1;HPM_P2
2021/05/30 00:00:05;;;;;;;2.42;1.20;;;;;;;3.91;73.85;91396.66;4936795;29;20035;-86
2021/05/30 00:02:30;;;;;;;1.92;1.05;;;;;;;3.96;73.96;91396.63;4953043;29;20453;-86
2021/05/30 00:04:55;;;;;;;1.90;1.10;;;;;;;3.94;73.63;91389.13;4967614;28;20023;-86
2021/05/30 00:07:22;;;;;;;3.60;1.27;;;;;;;3.89;73.74;91391.00;4940200;29;20031;-86
2021/05/30 00:09:48;;;;;;;2.38;1.50;;;;;;;3.77;73.92;91386.22;4924438;29;20500;-86
2021/05/30 00:12:14;;;;;;;2.38;1.20;;;;;;;3.82;73.67;91386.97;4923621;29;20035;-85
2021/05/30 00:14:39;;;;;;;1.42;0.98;;;;;;;3.77;73.57;91384.41;4924109;29;20034;-87
2021/05/30 00:17:05;;;;;;;2.28;1.20;;;;;;;3.67;74.01;91389.69;4956009;29;20444;-86
2021/05/30 00:19:30;;;;;;;3.40;1.10;;;;;;;3.61;74.41;91385.66;4939822;29;20477;-88
2021/05/30 00:21:55;;;;;;;1.77;1.17;;;;;;;3.47;74.95;91384.75;4923834;29;20039;-86
2021/05/30 00:24:21;;;;;;;2.97;1.20;;;;;;;3.53;74.70;91378.50;4939377;29;20042;-86
2021/05/30 00:26:46;;;;;;;3.60;1.25;;;;;;;3.55;74.66;91387.50;4923632;29;20054;-87
2021/05/30 00:29:12;;;;;;;1.60;1.02;;;;;;;3.43;74.90;91383.72;4923743;29;20058;-86
2021/05/30 00:31:37;;;;;;;1.60;1.20;;;;;;;3.35;75.69;91382.53;4923393;29;20478;-86
2021/05/30 00:34:03;;;;;;;4.90;1.20;;;;;;;3.34;74.97;91386.16;4923939;29;20027;-86
2021/05/30 00:36:28;;;;;;;1.52;1.00;;;;;;;3.32;74.87;91376.13;4939252;29;20397;-86
2021/05/30 00:38:53;;;;;;;4.40;1.30;;;;;;;3.47;74.83;91382.94;4939468;29;20074;-86
2021/05/30 00:41:19;;;;;;;2.35;1.17;;;;;;;3.39;74.80;91375.03;4939049;29;20027;-86
2021/05/30 00:43:45;;;;;;;1.55;1.25;;;;;;;3.37;74.87;91379.69;4923621;29;20034;-86
2021/05/30 00:46:11;;;;;;;1.80;1.10;;;;;;;3.35;74.49;91372.97;4939406;29;20023;-86
2021/05/30 00:48:36;;;;;;;2.00;1.20;;;;;;;3.32;75.32;91370.97;4955261;29;20046;-86
2021/05/30 00:51:02;;;;;;;2.47;1.10;;;;;;;3.24;75.35;91374.13;4954941;29;20365;-86
2021/05/30 00:53:28;;;;;;;1.42;1.10;;;;;;;3.33;74.42;91369.94;4923074;29;20035;-86
2021/05/30 00:55:53;;;;;;;3.72;1.20;;;;;;;3.26;74.46;91374.63;4939098;29;20035;-86
2021/05/30 00:58:19;;;;;;;1.70;1.40;;;;;;;3.26;74.43;91372.06;4923251;29;20027;-86
2021/05/30 01:00:44;;;;;;;2.88;1.10;;;;;;;3.31;74.46;91369.41;4922985;29;20406;-86
2021/05/30 01:03:09;;;;;;;2.83;1.27;;;;;;;3.28;74.46;91367.38;4938942;29;20027;-87
2021/05/30 01:05:35;;;;;;;2.17;1.30;;;;;;;3.30;74.54;91367.13;4923239;29;20031;-86
2021/05/30 01:08:00;;;;;;;2.95;1.00;;;;;;;3.21;74.89;91366.16;4922922;29;20389;-86
2021/05/30 01:10:29;;;;;;;3.63;1.20;;;;;;;3.30;74.62;91365.31;4922945;29;20034;-86
2021/05/30 01:12:55;;;;;;;1.50;0.90;;;;;;;3.08;74.77;91358.06;4923448;29;20500;-86
2021/05/30 01:15:21;;;;;;;2.55;1.10;;;;;;;3.12;75.36;91366.00;4939168;29;20023;-86
2021/05/30 01:17:47;;;;;;;1.92;1.05;;;;;;;2.95;75.67;91357.91;4922796;29;20473;-86
2021/05/30 01:20:16;;;;;;;1.77;1.10;;;;;;;3.07;75.40;91360.88;4922965;29;20053;-86
2021/05/30 01:22:42;;;;;;;1.83;0.95;;;;;;;2.90;75.55;91361.31;4938898;29;20039;-85
2021/05/30 01:25:09;;;;;;;1.45;1.02;;;;;;;2.83;76.16;91359.03;4954864;29;20558;-86
2021/05/30 01:27:35;;;;;;;2.17;1.15;;;;;;;2.82;76.42;91354.91;4922839;29;20027;-86
2021/05/30 01:30:00;;;;;;;2.20;1.00;;;;;;;2.91;76.51;91360.25;4938552;29;20026;-85
2021/05/30 01:32:25;;;;;;;1.80;1.15;;;;;;;2.86;75.93;91355.13;4938224;29;20027;-86
2021/05/30 01:34:51;;;;;;;1.48;0.90;;;;;;;2.77;75.52;91359.34;4938552;29;20043;-86
2021/05/30 01:37:16;;;;;;;2.60;1.30;;;;;;;2.72;75.37;91355.00;4922736;29;20437;-86
2021/05/30 01:39:42;;;;;;;1.90;1.10;;;;;;;2.64;75.82;91360.72;4922429;29;20544;-85
2021/05/30 01:42:07;;;;;;;1.00;0.82;;;;;;;2.62;75.78;91366.13;4938077;29;20023;-86
2021/05/30 01:44:33;;;;;;;1.60;1.02;;;;;;;2.62;75.83;91355.06;4938126;29;20031;-86
2021/05/30 01:46:58;;;;;;;2.13;1.20;;;;;;;2.68;75.90;91359.13;4938243;29;20034;-86
2021/05/30 01:49:23;;;;;;;1.58;1.10;;;;;;;2.62;76.31;91361.00;4938112;29;20140;-86
2021/05/30 01:51:49;;;;;;;1.70;1.08;;;;;;;2.70;75.76;91348.59;4921216;29;20425;-86
2021/05/30 01:54:18;;;;;;;1.88;1.20;;;;;;;2.61;76.13;91354.31;4938306;29;20038;-86
2021/05/30 01:56:56;;;;;;;1.65;1.10;;;;;;;2.63;76.12;91352.22;4923504;29;20027;-86
2021/05/30 01:59:22;;;;;;;1.27;1.00;;;;;;;2.55;76.58;91364.91;4926330;29;20027;-86
2021/05/30 02:01:51;;;;;;;1.20;1.00;;;;;;;2.50;76.68;91362.34;4938469;29;20114;-86
2021/05/30 02:04:16;;;;;;;2.38;1.10;;;;;;;2.52;76.27;91358.47;4922811;29;20058;-85
2021/05/30 02:06:42;;;;;;;1.90;1.17;;;;;;;2.47;76.74;91355.16;4938324;29;20031;-85
2021/05/30 02:09:08;;;;;;;1.48;1.08;;;;;;;2.29;77.60;91352.19;4939039;29;20161;-86
2021/05/30 02:11:33;;;;;;;2.33;1.35;;;;;;;2.28;77.03;91355.03;4937623;29;20118;-86
2021/05/30 02:14:02;;;;;;;1.90;1.00;;;;;;;2.24;77.32;91359.94;4937611;29;20123;-86
2021/05/30 02:16:29;;;;;;;2.15;1.20;;;;;;;2.46;76.83;91356.19;4937595;29;20027;-86
2021/05/30 02:18:54;;;;;;;1.95;1.27;;;;;;;2.36;76.64;91360.38;4961826;23;20468;-85
2021/05/30 02:21:20;;;;;;;3.40;1.17;;;;;;;2.30;77.12;91358.13;4980900;28;20057;-84
2021/05/30 02:23:45;;;;;;;3.03;1.83;;;;;;;2.41;77.20;91356.25;5013984;28;20027;-84
2021/05/30 02:26:10;;;;;;;1.40;1.08;;;;;;;2.27;76.79;91354.25;5014456;28;20033;-84
2021/05/30 02:28:36;;;;;;;1.40;1.00;;;;;;;2.30;77.05;91361.44;4999218;28;20018;-84
2021/05/30 02:31:01;;;;;;;3.00;1.30;;;;;;;2.29;76.76;91351.41;4997888;28;20026;-84
2021/05/30 02:33:27;;;;;;;3.80;1.25;;;;;;;1.89;78.01;91364.22;4998117;28;20018;-84
2021/05/30 02:35:53;;;;;;;2.00;1.15;;;;;;;2.09;78.15;91362.59;4998410;28;20424;-84
2021/05/30 02:38:18;;;;;;;2.13;0.90;;;;;;;2.15;77.44;91356.38;4997536;28;20030;-84
2021/05/30 02:40:44;;;;;;;2.53;1.08;;;;;;;2.04;78.25;91365.94;4997043;28;20033;-84
2021/05/30 02:43:09;;;;;;;1.73;1.00;;;;;;;1.98;78.11;91358.50;4998354;28;20026;-84
2021/05/30 02:45:35;;;;;;;2.10;1.23;;;;;;;2.00;78.10;91353.88;4982337;28;20080;-84
2021/05/30 02:48:00;;;;;;;2.10;1.10;;;;;;;1.92;77.88;91363.69;4997964;28;20026;-84
2021/05/30 02:50:26;;;;;;;1.80;1.20;;;;;;;2.04;77.41;91355.66;4981654;28;20786;-84
2021/05/30 02:52:51;;;;;;;3.50;1.40;;;;;;;1.88;77.69;91357.53;4997998;28;20168;-84
2021/05/30 02:55:16;;;;;;;3.08;1.10;;;;;;;1.79;78.27;91353.22;4997861;28;20408;-84
2021/05/30 02:57:42;;;;;;;3.45;1.15;;;;;;;1.77;78.61;91356.06;4997949;28;20037;-84
2021/05/30 03:00:08;;;;;;;1.75;1.13;;;;;;;1.84;78.31;91361.69;4997721;28;20504;-83
2021/05/30 03:02:34;;;;;;;2.22;0.80;;;;;;;1.79;78.29;91348.84;4997823;28;20053;-84
2021/05/30 03:04:59;;;;;;;1.10;0.85;;;;;;;1.95;78.02;91346.22;4997266;28;20034;-84
2021/05/30 03:07:25;;;;;;;2.58;1.00;;;;;;;1.91;78.12;91351.88;4982040;28;20023;-84
2021/05/30 03:09:50;;;;;;;1.17;0.88;;;;;;;1.86;78.41;91351.88;4998493;28;20041;-84
2021/05/30 03:12:16;;;;;;;2.08;1.65;;;;;;;1.84;78.55;91350.63;4997389;28;20037;-84
2021/05/30 03:14:42;;;;;;;3.67;1.20;;;;;;;1.78;78.21;91356.81;4997703;28;20475;-84
2021/05/30 03:17:07;;;;;;;2.95;1.00;;;;;;;1.64;78.57;91352.25;4981975;28;20038;-84
2021/05/30 03:19:32;;;;;;;1.23;0.95;;;;;;;1.56;78.30;91352.03;4999556;28;20034;-84
2021/05/30 03:21:58;;;;;;;1.90;1.10;;;;;;;1.49;78.53;91354.88;4983058;28;20036;-84
2021/05/30 03:24:23;;;;;;;1.70;1.17;;;;;;;1.44;78.76;91353.06;4984416;28;20065;-84
2021/05/30 03:26:49;;;;;;;1.98;1.27;;;;;;;1.50;78.66;91355.63;4998575;28;20030;-84
2021/05/30 03:29:14;;;;;;;1.90;1.17;;;;;;;1.49;78.58;91359.25;4996633;28;20036;-84
2021/05/30 03:31:39;;;;;;;1.73;1.00;;;;;;;1.50;78.85;91350.50;4997975;28;20094;-83
2021/05/30 03:34:05;;;;;;;1.73;1.38;;;;;;;1.62;78.34;91343.25;4997450;28;20027;-84
2021/05/30 03:36:32;;;;;;;1.80;1.20;;;;;;;1.55;78.84;91347.91;4996796;28;20477;-84
2021/05/30 03:39:05;;;;;;;1.60;1.23;;;;;;;1.58;79.28;91353.28;4980502;28;20054;-84
2021/05/30 03:41:40;;;;;;;2.05;1.30;;;;;;;1.58;78.92;91353.28;4981247;28;20042;-84
2021/05/30 03:44:06;;;;;;;2.00;1.30;;;;;;;1.62;78.97;91353.53;4996453;28;20030;-84
2021/05/30 03:46:31;;;;;;;2.22;1.15;;;;;;;1.68;79.01;91357.63;4980508;28;20137;-84
2021/05/30 03:48:57;;;;;;;1.92;1.10;;;;;;;1.76;79.78;91346.78;4980173;28;20030;-84
2021/05/30 03:51:22;;;;;;;3.35;1.15;;;;;;;1.74;79.08;91341.16;5013033;28;20023;-84
2021/05/30 03:53:48;;;;;;;2.65;1.30;;;;;;;1.75;79.52;91347.81;4980734;28;20030;-84
2021/05/30 03:56:13;;;;;;;2.97;1.30;;;;;;;1.78;79.92;91347.31;4997250;28;20030;-84
2021/05/30 03:58:39;;;;;;;2.20;1.10;;;;;;;1.89;80.34;91346.22;4996677;28;20034;-84
2021/05/30 04:01:04;;;;;;;2.17;1.20;;;;;;;1.88;80.48;91341.38;4995912;28;20472;-84
2021/05/30 04:03:30;;;;;;;1.45;1.15;;;;;;;1.91;80.51;91344.16;4980076;28;20042;-84
2021/05/30 04:05:55;;;;;;;4.35;1.38;;;;;;;2.23;79.70;91344.78;4980448;28;20033;-84
2021/05/30 04:08:20;;;;;;;1.42;1.00;;;;;;;2.31;79.89;91344.22;4996501;28;20028;-84
2021/05/30 04:10:46;;;;;;;1.48;0.95;;;;;;;2.21;80.10;91341.69;4979670;28;20019;-84
2021/05/30 04:13:11;;;;;;;1.75;1.13;;;;;;;2.25;79.25;91335.75;4979753;28;20026;-82
2021/05/30 04:15:37;;;;;;;3.63;2.10;;;;;;;2.22;79.00;91338.84;4966384;28;20396;-84
2021/05/30 04:18:02;;;;;;;2.28;1.45;;;;;;;2.10;78.65;91333.28;4967849;28;20038;-83
2021/05/30 04:20:28;;;;;;;3.35;1.50;;;;;;;2.08;79.67;91333.53;4982915;28;20026;-84
2021/05/30 04:22:53;;;;;;;1.90;1.33;;;;;;;2.04;79.87;91331.75;4966825;28;20026;-84
2021/05/30 04:25:19;;;;;;;7.25;1.30;;;;;;;2.05;79.36;91335.84;4999606;28;20030;-85
2021/05/30 04:27:45;;;;;;;1.67;1.23;;;;;;;2.11;79.92;91334.81;4967312;28;20030;-84
2021/05/30 04:30:11;;;;;;;4.10;1.30;;;;;;;2.25;79.32;91330.59;4967036;28;20041;-84
2021/05/30 04:32:37;;;;;;;2.20;1.20;;;;;;;2.29;79.02;91330.84;4983283;28;20031;-84
2021/05/30 04:35:03;;;;;;;2.15;1.35;;;;;;;2.42;79.17;91326.91;4983370;28;20041;-84
2021/05/30 04:37:28;;;;;;;2.72;1.50;;;;;;;2.49;79.31;91328.13;4983541;28;20105;-84
2021/05/30 04:39:53;;;;;;;2.45;1.45;;;;;;;2.68;78.65;91328.25;4999165;28;20469;-84
2021/05/30 04:42:19;;;;;;;2.65;1.17;;;;;;;2.67;78.31;91325.94;4998554;28;20377;-84
2021/05/30 04:44:45;;;;;;;2.38;1.30;;;;;;;2.72;78.45;91328.47;4998938;28;20037;-84
2021/05/30 04:47:11;;;;;;;6.65;1.67;;;;;;;2.81;79.50;91322.47;4998728;28;20676;-83
2021/05/30 04:49:37;;;;;;;3.38;1.40;;;;;;;2.90;79.56;91322.69;4999096;28;20026;-84
2021/05/30 04:52:03;;;;;;;2.05;1.35;;;;;;;2.97;78.53;91324.91;4999211;28;20026;-84
2021/05/30 04:54:28;;;;;;;2.13;1.40;;;;;;;3.02;78.02;91322.31;4998866;28;20026;-84
2021/05/30 04:56:54;;;;;;;2.08;1.30;;;;;;;3.15;78.43;91318.34;4999692;28;20022;-84
2021/05/30 04:59:19;;;;;;;1.77;1.15;;;;;;;3.32;78.11;91327.19;4998558;28;20526;-84
2021/05/30 05:01:45;;;;;;;2.28;1.25;;;;;;;3.35;78.38;91324.03;4997867;28;20018;-84
2021/05/30 05:04:10;;;;;;;1.65;1.20;;;;;;;3.41;77.61;91318.84;4989208;28;20046;-83
2021/05/30 05:06:36;;;;;;;2.15;1.50;;;;;;;3.51;78.08;91321.31;4994558;28;20481;-84
2021/05/30 05:09:01;;;;;;;2.30;1.50;;;;;;;3.62;78.40;91322.72;4994939;28;20031;-84
2021/05/30 05:11:26;;;;;;;1.60;1.30;;;;;;;3.90;78.37;91322.94;4979765;28;20022;-84
2021/05/30 05:13:52;;;;;;;2.50;1.40;;;;;;;4.21;79.40;91326.66;4994965;28;20022;-84
2021/05/30 05:16:17;;;;;;;2.25;1.10;;;;;;;4.34;77.52;91321.84;4979929;28;20018;-84
2021/05/30 05:18:43;;;;;;;1.85;1.30;;;;;;;4.45;76.91;91321.44;4962622;28;20027;-84
2021/05/30 05:21:08;;;;;;;3.15;1.45;;;;;;;4.48;78.01;91314.91;4997299;28;20037;-84
2021/05/30 05:23:34;;;;;;;2.13;1.50;;;;;;;4.79;75.68;91315.22;4997493;28;20030;-84
2021/05/30 05:26:02;;;;;;;2.08;1.40;;;;;;;4.93;74.85;91310.09;4997774;28;20034;-84
2021/05/30 05:28:28;;;;;;;3.13;1.55;;;;;;;5.40;71.44;91313.44;4980966;28;20045;-84
2021/05/30 05:30:53;;;;;;;1.80;1.40;;;;;;;5.53;73.94;91302.34;5014603;28;20018;-84
2021/05/30 05:33:19;;;;;;;2.63;1.30;;;;;;;5.67;72.58;91313.44;4997934;28;20028;-84
2021/05/30 05:35:44;;;;;;;1.80;1.40;;;;;;;5.88;73.25;91305.31;4981536;28;20528;-84
2021/05/30 05:38:09;;;;;;;2.50;1.50;;;;;;;6.22;70.24;91300.50;4997641;28;20130;-83
2021/05/30 05:40:35;;;;;;;1.98;1.40;;;;;;;6.38;67.76;91300.16;4996780;28;20057;-84
2021/05/30 05:43:00;;;;;;;1.80;1.38;;;;;;;6.47;69.66;91293.22;4996984;28;20027;-84
2021/05/30 05:45:26;;;;;;;2.53;1.55;;;;;;;6.72;67.29;91296.31;4998104;28;20530;-85
2021/05/30 05:47:52;;;;;;;2.20;1.45;;;;;;;6.91;65.83;91299.47;5012526;28;20040;-84
2021/05/30 05:50:20;;;;;;;2.25;1.38;;;;;;;7.05;64.78;91294.22;5012440;28;20022;-84
2021/05/30 05:52:45;;;;;;;4.43;1.27;;;;;;;7.21;64.81;91287.59;5012517;28;20101;-85
2021/05/30 05:55:11;;;;;;;2.30;1.40;;;;;;;7.23;64.83;91288.06;4996149;28;20049;-84
2021/05/30 05:57:38;;;;;;;2.95;1.30;;;;;;;7.36;63.45;91287.22;4995818;28;20087;-85
2021/05/30 06:00:08;;;;;;;2.20;1.38;;;;;;;7.51;63.59;91296.41;4995986;28;20031;-83
2021/05/30 06:02:33;;;;;;;2.10;1.50;;;;;;;7.64;63.29;91284.41;4995873;28;20026;-84
2021/05/30 06:04:58;;;;;;;1.67;1.30;;;;;;;7.63;62.85;91299.22;5012203;28;20055;-85
2021/05/30 06:07:24;;;;;;;1.92;1.25;;;;;;;7.74;62.63;91297.13;4995356;28;20026;-84
2021/05/30 06:09:50;;;;;;;2.88;1.40;;;;;;;7.83;62.33;91299.72;4995398;28;20026;-84
2021/05/30 06:12:16;;;;;;;1.98;1.50;;;;;;;7.87;62.17;91295.47;4978993;28;20026;-84
2021/05/30 06:14:41;;;;;;;2.30;1.30;;;;;;;7.94;61.96;91300.22;4995279;28;20032;-83
2021/05/30 06:17:07;;;;;;;2.85;1.30;;;;;;;7.97;61.84;91302.97;4995220;28;20029;-85
2021/05/30 06:19:32;;;;;;;2.70;1.52;;;;;;;7.98;61.94;91298.53;4995281;28;20046;-84
2021/05/30 06:21:57;;;;;;;3.00;1.13;;;;;;;8.12;61.00;91296.59;4994760;28;20030;-84
2021/05/30 06:24:23;;;;;;;2.65;1.35;;;;;;;8.25;62.48;91300.13;4994443;28;20037;-85
2021/05/30 06:26:49;;;;;;;4.00;1.30;;;;;;;8.31;59.28;91306.72;4977091;28;20550;-84
2021/05/30 06:29:14;;;;;;;2.30;1.25;;;;;;;8.30;60.27;91298.16;4994674;28;20026;-84
2021/05/30 06:31:39;;;;;;;1.95;1.45;;;;;;;8.47;61.75;91300.00;4994697;28;20469;-83
2021/05/30 06:34:06;;;;;;;3.20;1.27;;;;;;;8.49;59.89;91308.28;4994435;28;20041;-83
2021/05/30 06:36:32;;;;;;;1.83;1.40;;;;;;;8.64;59.27;91309.66;4994792;28;20030;-84
2021/05/30 06:38:58;;;;;;;2.08;1.40;;;;;;;8.66;59.15;91309.34;5011217;28;20419;-84
2021/05/30 06:41:23;;;;;;;3.05;1.48;;;;;;;8.74;59.85;91311.94;4994305;28;20032;-84
2021/05/30 06:43:51;;;;;;;2.00;1.40;;;;;;;8.76;60.58;91309.03;4996849;28;20057;-84
2021/05/30 06:46:17;;;;;;;3.38;1.30;;;;;;;8.89;60.61;91300.31;5011954;28;20026;-84
2021/05/30 06:48:42;;;;;;;2.45;1.35;;;;;;;8.91;61.20;91305.97;4994735;28;20072;-84
2021/05/30 06:51:15;;;;;;;1.73;1.20;;;;;;;8.94;58.72;91304.59;4994385;28;20019;-84
2021/05/30 06:53:42;;;;;;;3.88;1.50;;;;;;;8.95;58.52;91309.50;4995095;28;20030;-83
2021/05/30 06:56:07;;;;;;;2.05;1.10;;;;;;;9.10;57.79;91303.81;4977666;28;20029;-85
2021/05/30 06:58:33;;;;;;;1.60;1.25;;;;;;;9.10;59.40;91303.81;4994322;28;20031;-84
2021/05/30 07:00:58;;;;;;;2.83;1.60;;;;;;;9.15;60.63;91307.31;5010453;28;20500;-85
2021/05/30 07:03:23;;;;;;;1.58;1.35;;;;;;;9.27;57.03;91305.59;4992938;28;20023;-84
2021/05/30 07:05:50;;;;;;;2.42;1.48;;;;;;;9.31;59.13;91306.50;4961950;28;20045;-84
2021/05/30 07:08:15;;;;;;;3.53;1.60;;;;;;;9.40;58.40;91300.50;4976884;28;20030;-84
2021/05/30 07:10:41;;;;;;;2.60;1.50;;;;;;;9.45;58.07;91302.97;4975923;28;20022;-83
2021/05/30 07:13:06;;;;;;;1.63;1.45;;;;;;;9.56;59.15;91299.69;4977580;28;20041;-85
2021/05/30 07:15:31;;;;;;;1.95;1.40;;;;;;;9.75;59.79;91311.56;4977199;28;20049;-84
2021/05/30 07:17:57;;;;;;;3.08;1.50;;;;;;;9.76;57.11;91307.91;4992794;28;20034;-84
2021/05/30 07:20:22;;;;;;;3.70;1.60;;;;;;;9.89;57.17;91309.50;4992276;28;20100;-84
2021/05/30 07:22:48;;;;;;;1.83;1.10;;;;;;;10.08;55.74;91311.75;4976533;28;20472;-84
2021/05/30 07:25:13;;;;;;;2.10;1.40;;;;;;;10.04;56.23;91314.22;4976742;28;20513;-84
2021/05/30 07:27:39;;;;;;;2.55;1.50;;;;;;;10.09;55.59;91315.09;4977517;28;20022;-84
2021/05/30 07:30:06;;;;;;;2.47;1.38;;;;;;;10.13;54.52;91305.56;4977128;28;20022;-84
2021/05/30 07:32:32;;;;;;;2.88;1.60;;;;;;;10.32;56.18;91319.00;4974776;28;20038;-86
2021/05/30 07:34:57;;;;;;;2.50;1.48;;;;;;;10.25;53.43;91329.13;4974640;28;20032;-84
2021/05/30 07:37:23;;;;;;;2.28;1.35;;;;;;;10.41;53.25;91322.28;4974925;28;20026;-84
2021/05/30 07:39:48;;;;;;;2.25;1.50;;;;;;;10.29;53.75;91322.22;4991459;28;20026;-85
2021/05/30 07:42:14;;;;;;;2.67;1.30;;;;;;;10.36;54.03;91322.50;4990532;28;20381;-85
2021/05/30 07:44:39;;;;;;;2.38;1.60;;;;;;;10.42;51.92;91333.47;4990777;28;20077;-84
2021/05/30 07:47:05;;;;;;;3.38;1.45;;;;;;;10.51;52.76;91321.16;4974855;28;20472;-84
2021/05/30 07:49:31;;;;;;;2.45;1.50;;;;;;;10.76;53.90;91327.28;4992276;28;20026;-85
2021/05/30 07:51:56;;;;;;;3.80;1.63;;;;;;;10.72;52.21;91315.97;4978933;28;20534;-84
2021/05/30 07:54:22;;;;;;;2.83;1.42;;;;;;;10.78;52.02;91330.34;4999408;28;20026;-84
2021/05/30 07:56:48;;;;;;;3.00;1.40;;;;;;;10.87;52.00;91325.81;5015260;28;20042;-84
2021/05/30 07:59:13;;;;;;;1.85;1.50;;;;;;;11.01;52.41;91323.69;5013922;28;20026;-84
2021/05/30 08:01:38;;;;;;;2.80;1.40;;;;;;;11.14;53.38;91328.97;4997109;28;20030;-84
2021/05/30 08:04:04;;;;;;;3.28;1.50;;;;;;;10.94;50.20;91333.13;4996726;28;20091;-84
2021/05/30 08:06:30;;;;;;;2.65;1.40;;;;;;;10.93;49.70;91331.59;4995059;28;20080;-85
2021/05/30 08:08:57;;;;;;;2.15;1.63;;;;;;;10.94;50.19;91333.13;4961890;28;20026;-85
2021/05/30 08:11:22;;;;;;;2.03;1.20;;;;;;;11.16;50.02;91332.00;4962740;28;20026;-84
2021/05/30 08:13:48;;;;;;;3.58;1.70;;;;;;;11.25;50.18;91328.25;4962060;28;20026;-85
2021/05/30 08:16:13;;;;;;;3.38;1.67;;;;;;;11.39;52.50;91333.19;4978049;28;20026;-85
2021/05/30 08:18:39;;;;;;;2.17;1.27;;;;;;;11.56;50.50;91341.94;5000850;23;20043;-84
2021/05/30 08:21:04;;;;;;;1.65;1.30;;;;;;;11.01;47.68;91341.94;4927521;29;20039;-83
2021/05/30 08:23:30;;;;;;;2.60;1.50;;;;;;;11.00;50.41;91337.81;4928093;29;20519;-85
2021/05/30 08:25:56;;;;;;;2.83;1.70;;;;;;;11.06;48.52;91335.00;4910999;29;20481;-85
2021/05/30 08:28:21;;;;;;;3.35;1.50;;;;;;;11.30;48.61;91332.50;4912347;29;20037;-85
2021/05/30 08:30:46;;;;;;;3.17;1.48;;;;;;;11.19;47.15;91339.19;4941841;29;20035;-85
2021/05/30 08:33:12;;;;;;;1.98;1.35;;;;;;;11.38;48.52;91329.06;4926832;29;20027;-85
2021/05/30 08:35:37;;;;;;;2.63;1.40;;;;;;;11.82;50.62;91325.97;4942033;29;20023;-85
2021/05/30 08:38:03;;;;;;;1.70;1.20;;;;;;;11.84;47.72;91331.69;4925339;28;20023;-84
2021/05/30 08:40:29;;;;;;;4.32;1.48;;;;;;;11.77;45.17;91326.19;4925685;29;20155;-86
2021/05/30 08:42:54;;;;;;;1.83;1.45;;;;;;;11.88;47.99;91337.78;4924209;29;20024;-85
2021/05/30 08:45:20;;;;;;;1.35;1.17;;;;;;;11.92;46.64;91323.72;4941063;29;20015;-85
2021/05/30 08:47:46;;;;;;;3.65;1.40;;;;;;;11.83;44.60;91336.09;4942003;28;20482;-84
2021/05/30 08:50:12;;;;;;;2.00;1.52;;;;;;;11.61;45.40;91336.50;4925971;29;20030;-85
2021/05/30 08:52:37;;;;;;;2.88;1.70;;;;;;;11.62;47.76;91328.31;4943902;29;20499;-86
2021/05/30 08:55:04;;;;;;;2.30;1.40;;;;;;;11.87;46.86;91337.00;4926686;29;20401;-86
2021/05/30 08:57:29;;;;;;;2.20;1.60;;;;;;;11.86;49.00;91330.25;4945013;29;20035;-85
2021/05/30 08:59:56;;;;;;;2.88;1.60;;;;;;;12.19;49.90;91334.59;4926923;29;20027;-86
2021/05/30 09:02:21;;;;;;;2.42;1.55;;;;;;;12.21;46.81;91337.66;4926304;29;20039;-85
2021/05/30 09:04:54;;;;;;;1.98;1.40;;;;;;;12.25;49.31;91333.31;4941874;29;20516;-85
2021/05/30 09:07:36;;;;;;;1.77;1.23;;;;;;;12.39;46.02;91335.59;4941905;29;20086;-86
2021/05/30 09:10:23;;;;;;;1.48;1.27;;;;;;;12.48;44.79;91332.88;4956970;28;20101;-85
2021/05/30 09:13:06;;;;;;;2.42;1.40;;;;;;;12.68;47.84;91337.19;4957212;28;20027;-85
2021/05/30 09:16:09;;;;;;;2.00;1.20;;;;;;;12.66;44.56;91334.16;4956259;29;20170;-84
2021/05/30 09:18:33;;;;;;;2.08;1.38;;;;;;;12.76;47.67;91336.31;4950895;28;20040;-85
2021/05/30 09:21:09;;;;;;;3.00;1.35;;;;;;;12.86;43.55;91328.00;4932525;29;20031;-85
2021/05/30 09:23:41;;;;;;;2.97;1.30;;;;;;;13.11;46.26;91327.94;4957992;29;20030;-85
2021/05/30 09:26:08;;;;;;;1.83;1.30;;;;;;;13.38;43.99;91336.88;4972584;28;20106;-85
2021/05/30 09:28:33;;;;;;;1.65;1.23;;;;;;;13.49;43.69;91331.94;4941852;29;20034;-85
2021/05/30 09:31:02;;;;;;;3.17;1.63;;;;;;;13.79;47.56;91338.31;4925299;29;20027;-85
2021/05/30 09:33:33;;;;;;;2.28;1.45;;;;;;;13.38;44.36;91344.75;4936460;29;20054;-84
2021/05/30 09:36:03;;;;;;;1.40;1.13;;;;;;;13.42;44.15;91344.84;4973677;28;20375;-85
2021/05/30 09:38:38;;;;;;;1.85;1.40;;;;;;;13.63;46.40;91335.66;4942422;29;20417;-85
2021/05/30 09:41:12;;;;;;;2.67;1.33;;;;;;;13.60;43.41;91346.06;4941070;29;20031;-83
2021/05/30 09:43:52;;;;;;;2.10;1.58;;;;;;;13.51;45.80;91340.22;4926214;29;20034;-84
2021/05/30 09:46:21;;;;;;;1.85;1.27;;;;;;;13.53;46.20;91338.00;4924769;29;20042;-85
2021/05/30 09:48:50;;;;;;;2.40;1.52;;;;;;;13.82;43.80;91345.50;4941360;29;20027;-86
2021/05/30 09:51:45;;;;;;;2.60;1.30;;;;;;;13.28;42.75;91345.97;4956604;29;20035;-85
2021/05/30 09:54:16;;;;;;;3.00;1.67;;;;;;;13.22;43.45;91349.91;4959430;28;20138;-86
2021/05/30 09:56:42;;;;;;;2.38;1.40;;;;;;;12.95;43.43;91350.66;4956442;28;20027;-85
2021/05/30 09:59:10;;;;;;;2.80;1.45;;;;;;;13.06;44.58;91341.25;4956034;28;20054;-86
2021/05/30 10:02:01;;;;;;;5.22;1.40;;;;;;;13.05;43.88;91355.41;4953503;29;20039;-87
2021/05/30 10:04:28;;;;;;;3.40;1.52;;;;;;;12.52;43.01;91349.41;4954322;29;20031;-86
2021/05/30 10:06:55;;;;;;;3.35;1.50;;;;;;;12.86;45.25;91348.94;4953551;29;20023;-87
2021/05/30 10:09:21;;;;;;;3.25;1.42;;;;;;;12.88;43.59;91351.97;4954039;28;20046;-86
2021/05/30 10:11:47;;;;;;;2.08;1.40;;;;;;;12.82;44.80;91342.81;4952876;28;20051;-87
2021/05/30 10:14:12;;;;;;;2.25;1.48;;;;;;;12.90;44.35;91343.81;4919233;29;20031;-85
2021/05/30 10:16:38;;;;;;;3.15;1.50;;;;;;;13.03;46.11;91341.91;4918417;29;20028;-87
2021/05/30 10:19:16;;;;;;;2.53;1.50;;;;;;;13.10;45.99;91342.09;4918626;29;20038;-85
2021/05/30 10:21:50;;;;;;;3.95;1.80;;;;;;;13.17;43.33;91334.44;4919166;29;20651;-87
2021/05/30 10:24:15;;;;;;;2.53;1.50;;;;;;;13.25;40.71;91328.34;4918373;29;20103;-86
2021/05/30 10:26:40;;;;;;;2.72;1.30;;;;;;;13.45;46.10;91336.31;4929480;29;20038;-88
2021/05/30 10:29:18;;;;;;;2.17;1.40;;;;;;;13.56;42.30;91321.63;4937406;29;20019;-87
2021/05/30 10:31:47;;;;;;;2.45;1.42;;;;;;;13.73;48.26;91329.19;4938360;28;20086;-88
2021/05/30 10:34:22;;;;;;;2.10;1.30;;;;;;;14.04;45.19;91336.31;4937045;29;20023;-87
2021/05/30 10:36:57;;;;;;;3.38;1.55;;;;;;;14.11;45.22;91333.84;4937527;29;20038;-87
2021/05/30 10:39:28;;;;;;;3.58;1.50;;;;;;;14.22;40.83;91328.09;4969519;28;20038;-88
2021/05/30 10:42:06;;;;;;;3.35;1.70;;;;;;;14.06;40.43;91335.94;4954022;29;20035;-87
2021/05/30 10:44:52;;;;;;;2.35;1.60;;;;;;;13.92;43.46;91331.13;4952358;29;20030;-88
2021/05/30 10:47:17;;;;;;;2.10;1.40;;;;;;;14.03;43.66;91326.16;4952592;29;20034;-87
2021/05/30 10:50:16;;;;;;;2.67;1.60;;;;;;;14.20;43.40;91317.19;4936471;29;20043;-86
2021/05/30 10:52:43;;;;;;;2.35;1.50;;;;;;;14.07;43.05;91319.91;4942510;28;20061;-87
2021/05/30 10:55:18;;;;;;;2.55;1.38;;;;;;;14.22;42.58;91326.22;4936791;28;20023;-88
2021/05/30 10:57:46;;;;;;;2.65;1.70;;;;;;;14.13;40.97;91332.75;4953377;29;20560;-86
2021/05/30 11:00:17;;;;;;;2.60;1.50;;;;;;;13.87;39.21;91337.38;4936514;28;20034;-86
2021/05/30 11:03:02;;;;;;;3.33;1.33;;;;;;;14.01;41.46;91331.72;4974843;28;20107;-90
2021/05/30 11:05:56;;;;;;;4.13;1.63;;;;;;;14.23;43.78;91327.00;4968737;28;20493;-86
2021/05/30 11:08:31;;;;;;;2.35;1.30;;;;;;;14.41;39.13;91332.63;4938518;28;20473;-87
2021/05/30 11:11:26;;;;;;;1.73;1.13;;;;;;;14.61;40.15;91331.63;4967424;28;20019;-87
2021/05/30 11:13:56;;;;;;;1.70;1.27;;;;;;;14.72;37.48;91329.22;4936054;29;20031;-87
2021/05/30 11:16:23;;;;;;;1.88;1.10;;;;;;;14.20;35.50;91323.19;4936005;28;20027;-86
2021/05/30 11:19:05;;;;;;;2.35;1.20;;;;;;;14.58;41.69;91333.06;4951923;28;20042;-87
2021/05/30 11:21:41;;;;;;;1.40;1.15;;;;;;;14.33;35.98;91322.00;4936072;29;20038;-88
2021/05/30 11:24:08;;;;;;;2.67;1.17;;;;;;;14.67;39.59;91313.75;4935982;28;20022;-87
2021/05/30 11:26:34;;;;;;;1.88;0.90;;;;;;;14.55;35.23;91320.63;4935363;29;20031;-87
2021/05/30 11:28:59;;;;;;;1.50;1.10;;;;;;;14.66;39.53;91312.97;4951704;29;20078;-87
2021/05/30 11:31:25;;;;;;;1.73;0.82;;;;;;;14.74;36.21;91322.53;4951581;29;20022;-88
2021/05/30 11:33:55;;;;;;;1.77;0.88;;;;;;;14.72;37.50;91316.09;4920178;29;20118;-87
2021/05/30 11:36:24;;;;;;;1.23;0.88;;;;;;;14.53;35.05;91301.09;4952281;28;20389;-87
2021/05/30 11:38:57;;;;;;;1.50;0.80;;;;;;;14.83;36.93;91315.22;4951306;29;20179;-87